Time;durP1;ratioP1;P1;durP2;ratioP2;P2;SDS_P1;SDS_P2;PMS_P1;PMS_P2;Temp;Humidity;BMP_temperature;BMP_pressure;BME280_temperature;BME280_humidity;BME280_pressure;Samples;Min_cycle;Max_cycle;Signal;HPM_P1;HPM_P2
2023/07/22 00:02:30;;;;;;;6.57;5.18;;;;;;;;;;10353396;28;20038;-84
2023/07/22 00:07:31;;;;;;;6.78;5.30;;;;;;;;;;10368276;28;20033;-84
2023/07/22 00:12:31;;;;;;;6.27;5.40;;;;;;;;;;10367524;28;20026;-84
2023/07/22 00:17:31;;;;;;;6.03;5.00;;;;;;;;;;10353556;28;20109;-79
2023/07/22 00:22:32;;;;;;;7.10;5.32;;;;;;;;;;10333997;28;20060;-82
2023/07/22 00:27:33;;;;;;;6.73;5.50;;;;;;;;;;10345010;28;20022;-83
2023/07/22 00:32:34;;;;;;;8.20;5.40;;;;;;;;;;10341524;28;20116;-81
2023/07/22 00:37:34;;;;;;;7.60;5.70;;;;;;;;;;10342006;28;20100;-80
2023/07/22 00:42:35;;;;;;;7.82;5.82;;;;;;;;;;10327678;28;20498;-82
2023/07/22 00:47:36;;;;;;;8.10;6.43;;;;;;;;;;10343405;28;20044;-82
2023/07/22 00:52:37;;;;;;;7.35;5.78;;;;;;;;;;10325506;28;20038;-80
2023/07/22 00:57:38;;;;;;;7.75;5.63;;;;;;;;;;10362599;28;20041;-81
2023/07/22 01:02:40;;;;;;;7.70;6.10;;;;;;;;;;10350598;28;20069;-83
2023/07/22 01:07:41;;;;;;;8.38;5.35;;;;;;;;;;10340515;28;20034;-85
2023/07/22 01:12:43;;;;;;;7.88;5.93;;;;;;;;;;10341076;28;20058;-83
2023/07/22 01:17:46;;;;;;;6.80;5.90;;;;;;;;;;10349218;28;20045;-85
2023/07/22 01:22:50;;;;;;;8.15;6.30;;;;;;;;;;10358438;28;20493;-86
2023/07/22 01:27:51;;;;;;;7.20;5.80;;;;;;;;;;10352393;28;20112;-83
2023/07/22 01:32:51;;;;;;;5.93;5.32;;;;;;;;;;10345722;28;20108;-82
2023/07/22 01:37:52;;;;;;;7.95;5.65;;;;;;;;;;10347939;28;20029;-82
2023/07/22 01:42:53;;;;;;;7.27;5.30;;;;;;;;;;10364391;28;20042;-82
2023/07/22 01:47:54;;;;;;;8.57;6.25;;;;;;;;;;10369957;28;20302;-81
2023/07/22 01:52:54;;;;;;;6.30;5.60;;;;;;;;;;10356873;28;20037;-82
2023/07/22 01:57:54;;;;;;;8.02;5.38;;;;;;;;;;10359096;28;21214;-81
2023/07/22 02:02:56;;;;;;;6.32;5.28;;;;;;;;;;10360375;28;20047;-84
2023/07/22 02:07:57;;;;;;;7.43;5.10;;;;;;;;;;10348708;28;20022;-82
2023/07/22 02:12:57;;;;;;;6.90;5.03;;;;;;;;;;10373947;28;20041;-82
2023/07/22 02:17:58;;;;;;;8.03;5.37;;;;;;;;;;10325735;28;20044;-82
2023/07/22 02:22:58;;;;;;;6.90;5.20;;;;;;;;;;10338693;28;20288;-81
2023/07/22 02:27:59;;;;;;;6.17;5.13;;;;;;;;;;10340991;28;20025;-81
2023/07/22 02:32:59;;;;;;;7.40;5.20;;;;;;;;;;10351047;28;20555;-83
2023/07/22 02:38:02;;;;;;;6.27;5.13;;;;;;;;;;10341813;28;20041;-82
2023/07/22 02:43:03;;;;;;;5.40;4.85;;;;;;;;;;10370194;28;20058;-81
2023/07/22 02:48:04;;;;;;;6.47;5.60;;;;;;;;;;10343792;28;20045;-86
2023/07/22 02:53:05;;;;;;;6.30;5.10;;;;;;;;;;10340030;28;20034;-81
2023/07/22 02:58:06;;;;;;;7.25;4.90;;;;;;;;;;10358897;28;20030;-85
2023/07/22 03:03:08;;;;;;;11.10;5.95;;;;;;;;;;10347661;28;20820;-85
2023/07/22 03:08:09;;;;;;;9.52;6.15;;;;;;;;;;10336098;28;20124;-80
2023/07/22 03:13:09;;;;;;;7.60;6.30;;;;;;;;;;10349176;28;20102;-82
2023/07/22 03:18:10;;;;;;;7.10;5.47;;;;;;;;;;10354235;28;20381;-84
2023/07/22 03:23:10;;;;;;;7.47;6.13;;;;;;;;;;10365388;28;20054;-84
2023/07/22 03:28:12;;;;;;;6.30;5.63;;;;;;;;;;10371858;28;20073;-82
2023/07/22 03:33:13;;;;;;;5.28;4.75;;;;;;;;;;10356287;28;20129;-80
2023/07/22 03:38:13;;;;;;;6.68;4.95;;;;;;;;;;10349169;28;20401;-80
2023/07/22 03:43:13;;;;;;;8.27;5.97;;;;;;;;;;10330665;28;20088;-80
2023/07/22 03:48:14;;;;;;;6.27;5.50;;;;;;;;;;10348875;28;20056;-82
2023/07/22 03:53:14;;;;;;;7.95;5.72;;;;;;;;;;10349178;28;20857;-81
2023/07/22 03:58:15;;;;;;;8.68;5.90;;;;;;;;;;10349545;28;20046;-81
2023/07/22 04:03:16;;;;;;;7.65;5.65;;;;;;;;;;10346645;28;20306;-82
2023/07/22 04:08:18;;;;;;;8.00;5.63;;;;;;;;;;10348379;28;20049;-82
2023/07/22 04:13:18;;;;;;;7.97;6.30;;;;;;;;;;10340629;28;20048;-82
2023/07/22 07:13:09;;;;;;;8.93;7.65;;;;;;;;;;10604891;22;20774;-84
2023/07/22 07:18:09;;;;;;;7.68;6.88;;;;;;;;;;10559677;28;20047;-81
2023/07/22 07:23:12;;;;;;;8.85;6.72;;;;;;;;;;10555019;28;20047;-80
2023/07/22 07:28:14;;;;;;;11.75;7.90;;;;;;;;;;10553250;28;20028;-82
2023/07/22 07:33:15;;;;;;;9.18;7.43;;;;;;;;;;10574613;27;20040;-81
2023/07/22 07:38:15;;;;;;;7.65;6.85;;;;;;;;;;10554004;28;20067;-81
2023/07/22 07:43:15;;;;;;;9.23;7.47;;;;;;;;;;10532688;28;20410;-81
2023/07/22 07:48:16;;;;;;;7.77;6.57;;;;;;;;;;10568665;27;20081;-80
2023/07/22 07:53:16;;;;;;;8.30;6.53;;;;;;;;;;10568287;28;20269;-81
2023/07/22 07:58:19;;;;;;;10.10;7.68;;;;;;;;;;10560324;28;20072;-80
2023/07/22 08:03:20;;;;;;;;;;;;;;;;;;10582748;28;20044;-80
2023/07/22 08:08:23;;;;;;;12.13;8.30;;;;;;;;;;10576688;28;19965;-80
2023/07/22 08:13:24;;;;;;;10.00;8.63;;;;;;;;;;10547454;28;20344;-84
2023/07/22 08:18:24;;;;;;;11.57;8.17;;;;;;;;;;10549992;28;20089;-81
2023/07/22 08:23:25;;;;;;;9.98;8.95;;;;;;;;;;10550129;28;20354;-84
2023/07/22 08:28:27;;;;;;;11.10;9.40;;;;;;;;;;10566823;28;20040;-83
2023/07/22 08:33:28;;;;;;;11.83;8.10;;;;;;;;;;10571379;28;20092;-84
2023/07/22 08:38:28;;;;;;;12.03;8.93;;;;;;;;;;10583229;28;20405;-85
2023/07/22 08:43:29;;;;;;;10.55;9.02;;;;;;;;;;10566203;28;20305;-81
2023/07/22 08:48:32;;;;;;;10.07;8.05;;;;;;;;;;10542208;28;20024;-85
2023/07/22 08:53:33;;;;;;;11.23;8.00;;;;;;;;;;10579505;28;20020;-81
2023/07/22 08:58:34;;;;;;;13.63;8.07;;;;;;;;;;10581605;28;20134;-83
2023/07/22 09:03:34;;;;;;;12.00;7.72;;;;;;;;;;10551923;28;20577;-80
2023/07/22 09:08:35;;;;;;;11.82;8.18;;;;;;;;;;10525309;28;20040;-85
2023/07/22 09:13:38;;;;;;;9.00;7.30;;;;;;;;;;10550365;27;20043;-82
2023/07/22 09:18:38;;;;;;;11.68;7.88;;;;;;;;;;10568380;27;20550;-79
2023/07/22 09:23:40;;;;;;;9.67;7.57;;;;;;;;;;10570359;27;20039;-81
2023/07/22 09:28:55;;;;;;;9.88;7.47;;;;;;;;;;10575075;27;20375;-86
2023/07/22 09:34:08;;;;;;;9.20;7.07;;;;;;;;;;10588209;27;20973;-82
2023/07/22 09:39:09;;;;;;;7.85;6.93;;;;;;;;;;10548491;27;20043;-80
2023/07/22 09:44:17;;;;;;;10.70;7.25;;;;;;;;;;10575175;27;20061;-81
2023/07/22 09:49:18;;;;;;;9.13;6.32;;;;;;;;;;10564833;27;20050;-82
2023/07/22 09:54:19;;;;;;;9.18;6.60;;;;;;;;;;10568446;27;20132;-80
2023/07/22 09:59:22;;;;;;;8.35;6.47;;;;;;;;;;10578555;27;20125;-84
2023/07/22 10:04:24;;;;;;;8.30;5.93;;;;;;;;;;10576206;27;20042;-83
2023/07/22 10:09:27;;;;;;;8.20;6.03;;;;;;;;;;10583761;27;20038;-82
2023/07/22 10:14:27;;;;;;;8.20;6.43;;;;;;;;;;10591215;27;20027;-83
2023/07/22 10:19:28;;;;;;;7.78;5.45;;;;;;;;;;10579914;27;20042;-83
2023/07/22 10:24:28;;;;;;;8.23;5.75;;;;;;;;;;10567870;27;20101;-83
2023/07/22 10:29:29;;;;;;;5.68;5.05;;;;;;;;;;10586726;27;20039;-85
2023/07/22 10:34:29;;;;;;;6.87;4.90;;;;;;;;;;10547452;27;20039;-79
2023/07/22 10:39:31;;;;;;;9.03;5.10;;;;;;;;;;10556349;27;20709;-82
2023/07/22 10:44:33;;;;;;;7.53;5.27;;;;;;;;;;10576487;27;20078;-80
2023/07/22 10:49:42;;;;;;;5.57;4.22;;;;;;;;;;10580669;27;20108;-81
2023/07/22 10:54:42;;;;;;;6.00;4.15;;;;;;;;;;10571660;27;20097;-81
2023/07/22 10:59:50;;;;;;;4.90;4.17;;;;;;;;;;10570260;28;20032;-84
2023/07/22 11:04:51;;;;;;;4.57;3.90;;;;;;;;;;10575607;28;20046;-82
2023/07/22 11:09:53;;;;;;;3.95;3.50;;;;;;;;;;10566979;28;20083;-81
2023/07/22 11:15:05;;;;;;;4.13;3.72;;;;;;;;;;10563194;28;20070;-77
2023/07/22 11:20:07;;;;;;;4.57;3.43;;;;;;;;;;10570486;28;20040;-82
2023/07/22 11:25:10;;;;;;;4.40;3.50;;;;;;;;;;10576748;27;20042;-83
2023/07/22 11:30:11;;;;;;;4.70;3.30;;;;;;;;;;10578898;28;20121;-81
2023/07/22 11:35:11;;;;;;;4.45;3.75;;;;;;;;;;10564112;28;20031;-78
2023/07/22 11:40:13;;;;;;;4.93;3.80;;;;;;;;;;10559046;28;20046;-80
2023/07/22 11:45:14;;;;;;;3.87;3.40;;;;;;;;;;10560841;27;20039;-78
2023/07/22 11:50:15;;;;;;;4.25;3.35;;;;;;;;;;10571423;27;20121;-80
2023/07/22 11:55:22;;;;;;;4.63;3.60;;;;;;;;;;10569331;27;20084;-83
2023/07/22 12:00:22;;;;;;;4.05;3.50;;;;;;;;;;10560732;27;20788;-80
2023/07/22 12:05:23;;;;;;;4.63;3.20;;;;;;;;;;10564431;27;20092;-76
2023/07/22 12:10:23;;;;;;;3.75;3.25;;;;;;;;;;10587378;27;20063;-78
2023/07/22 12:15:24;;;;;;;3.60;3.30;;;;;;;;;;10577701;27;20381;-78
2023/07/22 12:20:26;;;;;;;4.25;3.10;;;;;;;;;;10595967;27;20602;-79
2023/07/22 12:25:26;;;;;;;5.50;2.75;;;;;;;;;;10585895;27;20091;-80
2023/07/22 12:30:27;;;;;;;3.10;2.80;;;;;;;;;;10561028;27;20027;-78
2023/07/22 12:35:28;;;;;;;3.37;2.43;;;;;;;;;;10579647;27;20035;-77
2023/07/22 12:40:29;;;;;;;3.77;2.60;;;;;;;;;;10569592;27;20195;-77
2023/07/22 12:45:29;;;;;;;2.78;2.38;;;;;;;;;;10568559;27;20047;-79
2023/07/22 12:50:30;;;;;;;3.22;2.70;;;;;;;;;;10566777;27;20122;-77
2023/07/22 12:55:32;;;;;;;3.00;2.50;;;;;;;;;;10563906;27;20032;-78
2023/07/22 13:00:32;;;;;;;5.10;2.60;;;;;;;;;;10544506;27;20069;-77
2023/07/22 13:05:34;;;;;;;2.70;1.97;;;;;;;;;;10565001;27;20299;-81
2023/07/22 13:10:38;;;;;;;4.97;2.55;;;;;;;;;;10562898;27;20878;-78
2023/07/22 13:15:39;;;;;;;4.40;2.50;;;;;;;;;;10565297;27;20157;-81
2023/07/22 13:20:40;;;;;;;2.90;2.17;;;;;;;;;;10563975;27;20053;-78
2023/07/22 13:25:40;;;;;;;2.53;2.15;;;;;;;;;;10565589;27;20289;-79
2023/07/22 13:30:40;;;;;;;2.90;2.10;;;;;;;;;;10565392;27;21279;-79
2023/07/22 13:35:41;;;;;;;4.20;2.63;;;;;;;;;;10569892;27;20092;-79
2023/07/22 13:40:41;;;;;;;4.20;2.83;;;;;;;;;;10556886;27;20133;-79
2023/07/22 13:45:41;;;;;;;2.20;2.00;;;;;;;;;;10575479;27;20297;-79
2023/07/22 13:50:44;;;;;;;3.53;2.33;;;;;;;;;;10598383;27;20049;-81
2023/07/22 13:55:58;;;;;;;2.42;2.10;;;;;;;;;;10569226;27;20080;-82
2023/07/22 14:01:00;;;;;;;2.70;1.93;;;;;;;;;;10560383;27;20130;-81
2023/07/22 14:06:01;;;;;;;2.57;2.17;;;;;;;;;;10562350;27;20316;-78
2023/07/22 14:11:02;;;;;;;2.87;2.17;;;;;;;;;;10543414;27;20043;-78
2023/07/22 14:16:03;;;;;;;2.00;1.80;;;;;;;;;;10563974;27;20108;-78
2023/07/22 14:21:04;;;;;;;2.53;2.00;;;;;;;;;;10555369;27;20047;-80
2023/07/22 14:26:06;;;;;;;4.35;2.55;;;;;;;;;;10554646;27;20073;-82
2023/07/22 14:31:06;;;;;;;2.33;2.00;;;;;;;;;;10569827;27;20109;-80
2023/07/22 14:36:08;;;;;;;3.22;2.63;;;;;;;;;;10572292;27;20049;-78
2023/07/22 14:41:10;;;;;;;;;;;;;;;;;;10557583;27;20649;-77
2023/07/22 14:46:11;;;;;;;2.75;2.40;;;;;;;;;;10559228;27;19935;-75
2023/07/22 14:51:11;;;;;;;3.67;2.10;;;;;;;;;;10557687;27;20054;-77
2023/07/22 14:56:12;;;;;;;5.00;2.10;;;;;;;;;;10558929;27;20034;-78
2023/07/22 15:01:13;;;;;;;3.28;2.45;;;;;;;;;;10590999;28;20731;-83
2023/07/22 15:06:13;;;;;;;3.08;1.98;;;;;;;;;;10673984;22;20101;-76
2023/07/22 15:11:14;;;;;;;3.77;2.47;;;;;;;;;;10564571;28;20046;-80
2023/07/22 15:16:15;;;;;;;3.28;2.20;;;;;;;;;;10601692;28;20028;-82
2023/07/22 15:21:16;;;;;;;3.72;2.10;;;;;;;;;;10593482;28;20036;-86
2023/07/22 15:26:16;;;;;;;2.45;2.25;;;;;;;;;;10593880;27;20076;-80
2023/07/22 15:31:18;;;;;;;3.40;2.20;;;;;;;;;;10600521;27;20052;-82
2023/07/22 15:36:21;;;;;;;2.30;2.10;;;;;;;;;;10638957;27;20101;-87
2023/07/22 15:41:22;;;;;;;2.50;2.20;;;;;;;;;;10619953;27;20035;-78
2023/07/22 15:46:25;;;;;;;2.28;2.05;;;;;;;;;;10607285;27;20065;-79
2023/07/22 15:51:26;;;;;;;2.30;2.00;;;;;;;;;;10591509;27;20142;-81
2023/07/22 15:56:38;;;;;;;3.40;2.10;;;;;;;;;;10618248;27;20031;-80
2023/07/22 16:01:40;;;;;;;2.58;1.90;;;;;;;;;;10574695;27;20667;-83
2023/07/22 16:06:40;;;;;;;2.07;1.87;;;;;;;;;;10635498;27;20046;-80
2023/07/22 16:11:46;;;;;;;4.60;3.30;;;;;;;;;;10596228;27;20047;-80
2023/07/22 16:17:09;;;;;;;2.67;1.90;;;;;;;;;;10597400;27;20027;-80
2023/07/22 16:22:10;;;;;;;2.25;2.03;;;;;;;;;;10616699;27;20035;-79
2023/07/22 16:27:13;;;;;;;5.00;2.75;;;;;;;;;;10584559;27;20031;-78
2023/07/22 16:32:16;;;;;;;3.53;2.10;;;;;;;;;;10583957;27;20048;-78
2023/07/22 16:37:18;;;;;;;3.13;1.90;;;;;;;;;;10618159;27;20043;-77
2023/07/22 16:42:19;;;;;;;2.17;1.95;;;;;;;;;;10606125;27;20034;-79
2023/07/22 16:47:19;;;;;;;3.25;2.25;;;;;;;;;;10600936;27;20046;-77
2023/07/22 16:52:20;;;;;;;2.90;2.40;;;;;;;;;;10566822;27;20047;-81
2023/07/22 16:57:20;;;;;;;2.50;2.05;;;;;;;;;;10592672;27;20271;-80
2023/07/22 17:02:21;;;;;;;4.63;3.93;;;;;;;;;;10590705;27;20027;-80
2023/07/22 17:07:41;;;;;;;2.70;1.95;;;;;;;;;;10573914;27;20301;-73
2023/07/22 17:12:43;;;;;;;3.13;2.22;;;;;;;;;;10556971;27;20043;-80
2023/07/22 17:17:44;;;;;;;3.53;2.50;;;;;;;;;;10595694;27;20849;-73
2023/07/22 17:22:44;;;;;;;3.85;2.78;;;;;;;;;;10593988;27;20035;-74
2023/07/22 17:27:44;;;;;;;2.20;1.97;;;;;;;;;;10588292;27;20535;-74
2023/07/22 17:32:48;;;;;;;4.97;2.73;;;;;;;;;;10570934;27;20040;-72
2023/07/22 17:37:49;;;;;;;2.70;2.10;;;;;;;;;;10594887;27;20295;-75
2023/07/22 17:42:49;;;;;;;2.88;2.00;;;;;;;;;;10592917;27;20081;-76
2023/07/22 17:47:49;;;;;;;2.13;1.80;;;;;;;;;;10575912;27;20180;-75
2023/07/22 17:52:50;;;;;;;4.30;3.33;;;;;;;;;;10577921;27;20324;-78
2023/07/22 17:57:50;;;;;;;3.43;2.10;;;;;;;;;;10597531;27;20031;-76
2023/07/22 18:02:51;;;;;;;6.85;2.75;;;;;;;;;;10600232;27;20293;-75
2023/07/22 18:07:52;;;;;;;4.70;2.90;;;;;;;;;;10595868;27;20039;-76
2023/07/22 18:12:52;;;;;;;8.05;2.60;;;;;;;;;;10597428;27;20308;-77
2023/07/22 18:17:52;;;;;;;4.13;2.67;;;;;;;;;;10596243;27;20035;-74
2023/07/22 18:22:54;;;;;;;6.20;2.75;;;;;;;;;;10595675;27;20027;-77
2023/07/22 18:27:55;;;;;;;3.93;3.03;;;;;;;;;;10561484;27;20043;-76
2023/07/22 18:32:55;;;;;;;4.20;2.63;;;;;;;;;;10598863;27;20644;-79
2023/07/22 18:37:55;;;;;;;3.27;2.87;;;;;;;;;;10599174;27;20050;-76
2023/07/22 18:42:56;;;;;;;4.73;3.87;;;;;;;;;;10593156;27;20031;-75
2023/07/22 18:47:57;;;;;;;5.30;4.23;;;;;;;;;;10574513;27;20122;-75
2023/07/22 18:52:59;;;;;;;4.53;3.17;;;;;;;;;;10592156;27;20471;-74
2023/07/22 18:58:03;;;;;;;3.80;3.03;;;;;;;;;;10591221;27;20039;-77
2023/07/22 19:03:04;;;;;;;3.70;3.03;;;;;;;;;;10575461;27;20027;-78
2023/07/22 19:08:04;;;;;;;4.47;3.20;;;;;;;;;;10579896;27;20065;-78
2023/07/22 19:13:05;;;;;;;14.65;4.90;;;;;;;;;;10574494;27;20040;-78
2023/07/22 19:18:05;;;;;;;4.97;3.45;;;;;;;;;;10581232;27;20100;-76
2023/07/22 19:23:06;;;;;;;4.43;3.47;;;;;;;;;;10597677;27;20046;-83
2023/07/22 19:28:06;;;;;;;5.97;3.60;;;;;;;;;;10568440;27;20314;-77
2023/07/22 19:33:07;;;;;;;6.18;3.78;;;;;;;;;;10597752;27;20887;-78
2023/07/22 19:38:09;;;;;;;6.80;4.80;;;;;;;;;;10596181;27;20023;-81
2023/07/22 19:43:10;;;;;;;7.32;4.93;;;;;;;;;;10570384;27;20197;-79
2023/07/22 19:48:11;;;;;;;6.32;4.85;;;;;;;;;;10560114;28;20038;-78
2023/07/22 19:53:15;;;;;;;5.97;4.43;;;;;;;;;;10562414;28;20027;-78
2023/07/22 19:58:17;;;;;;;6.53;5.10;;;;;;;;;;10555069;28;20043;-78
2023/07/22 20:03:18;;;;;;;4.95;3.95;;;;;;;;;;10557894;28;20038;-79
2023/07/22 20:08:19;;;;;;;4.53;3.50;;;;;;;;;;10560311;27;20039;-79
2023/07/22 20:13:19;;;;;;;4.70;3.33;;;;;;;;;;10540432;27;20587;-78
2023/07/22 20:18:20;;;;;;;4.80;3.37;;;;;;;;;;10556506;27;20046;-78
2023/07/22 20:23:20;;;;;;;5.20;3.92;;;;;;;;;;10547831;27;20317;-79
2023/07/22 20:28:21;;;;;;;18.05;10.52;;;;;;;;;;10541554;27;20027;-77
2023/07/22 20:33:21;;;;;;;7.40;5.25;;;;;;;;;;10574219;27;20433;-80
2023/07/22 20:38:22;;;;;;;5.70;4.57;;;;;;;;;;10557393;27;20092;-81
2023/07/22 20:43:22;;;;;;;6.33;5.20;;;;;;;;;;10571809;27;20046;-80
2023/07/22 20:48:22;;;;;;;6.00;4.80;;;;;;;;;;10569272;27;20156;-80
2023/07/22 20:53:32;;;;;;;5.87;4.90;;;;;;;;;;10582016;27;20836;-81
2023/07/22 20:58:32;;;;;;;5.47;4.50;;;;;;;;;;10603259;27;20114;-80
2023/07/22 21:03:33;;;;;;;7.28;5.85;;;;;;;;;;10601883;27;21167;-80
2023/07/22 21:08:35;;;;;;;6.35;5.75;;;;;;;;;;10589063;27;20150;-77
2023/07/22 21:13:38;;;;;;;7.47;5.43;;;;;;;;;;10605892;27;20082;-77
2023/07/22 21:18:38;;;;;;;6.65;5.10;;;;;;;;;;10588398;27;20039;-77
2023/07/22 21:23:38;;;;;;;8.15;5.78;;;;;;;;;;10597146;27;20031;-79
2023/07/22 21:28:39;;;;;;;7.03;5.35;;;;;;;;;;10616664;27;20055;-78
2023/07/22 21:33:40;;;;;;;6.63;5.53;;;;;;;;;;10591374;27;20035;-77
2023/07/22 21:38:40;;;;;;;9.02;6.03;;;;;;;;;;10588044;27;20042;-78
2023/07/22 21:43:41;;;;;;;5.55;4.78;;;;;;;;;;10621058;27;20409;-77
2023/07/22 21:48:43;;;;;;;5.97;5.30;;;;;;;;;;10618881;27;20044;-79
2023/07/22 21:53:43;;;;;;;6.68;5.07;;;;;;;;;;10616599;27;20033;-78
2023/07/22 21:58:43;;;;;;;5.33;4.70;;;;;;;;;;10631957;27;20040;-75
2023/07/22 22:03:47;;;;;;;6.60;5.10;;;;;;;;;;10632869;27;20037;-77
2023/07/22 22:08:47;;;;;;;5.57;4.75;;;;;;;;;;10573128;27;20043;-77
2023/07/22 22:13:48;;;;;;;6.13;4.70;;;;;;;;;;10626304;27;20035;-76
2023/07/22 22:18:48;;;;;;;6.20;4.93;;;;;;;;;;10631082;27;20035;-77
2023/07/22 22:23:48;;;;;;;5.97;4.83;;;;;;;;;;10630158;27;20028;-78
2023/07/22 22:28:51;;;;;;;5.55;4.50;;;;;;;;;;10628283;27;20138;-79
2023/07/22 22:33:51;;;;;;;5.93;4.43;;;;;;;;;;10569762;27;20089;-80
2023/07/22 22:38:54;;;;;;;6.32;4.75;;;;;;;;;;10588105;27;20043;-79
2023/07/22 22:43:57;;;;;;;4.88;3.95;;;;;;;;;;10594575;27;20039;-79
2023/07/22 22:48:57;;;;;;;;;;;;;;;;;;10611830;27;20046;-80
2023/07/22 22:53:59;;;;;;;5.28;4.18;;;;;;;;;;10607383;27;20260;-80
2023/07/22 22:58:59;;;;;;;7.93;4.15;;;;;;;;;;10605437;27;20397;-77
2023/07/22 23:03:59;;;;;;;4.83;3.80;;;;;;;;;;10603645;27;20024;-78
2023/07/22 23:09:00;;;;;;;6.00;4.50;;;;;;;;;;10611778;27;21031;-78
2023/07/22 23:14:00;;;;;;;6.55;4.65;;;;;;;;;;10600267;27;20360;-78
2023/07/22 23:19:03;;;;;;;5.30;3.97;;;;;;;;;;10584301;27;20038;-78
2023/07/22 23:24:04;;;;;;;4.93;3.75;;;;;;;;;;10581845;27;20280;-78
2023/07/22 23:29:04;;;;;;;6.45;4.40;;;;;;;;;;10572046;27;20051;-79
2023/07/22 23:34:04;;;;;;;4.87;4.23;;;;;;;;;;10606603;27;20131;-79
2023/07/22 23:39:06;;;;;;;5.70;4.27;;;;;;;;;;10598731;27;20292;-78
2023/07/22 23:44:06;;;;;;;6.07;4.18;;;;;;;;;;10588635;27;20053;-78
2023/07/22 23:49:07;;;;;;;6.87;4.57;;;;;;;;;;10627787;27;20050;-79
2023/07/22 23:54:07;;;;;;;5.07;4.40;;;;;;;;;;10594688;27;20038;-78
2023/07/22 23:59:07;;;;;;;5.07;4.07;;;;;;;;;;10606256;27;20123;-79
